Kortemark, Belgium
Current Conditions -  °F | °C
As of 5:20 PM on Thursday 27 Nov 2014 (Local Time) from EBOS Reporting Station
Haze Haze  
Wind Chill: 50°   Ceiling: 700
Heat Index: 50°   Visibility: 3mi
Dew Point: 50°   Wind: 5mph
Humidity: 100%   Direction: 120°ESE
Pressure: 29.65"   Gusts: NA
Location:  51.03°N, 3.04°E
Report Text: EBOS 271620Z 12004KT 5000 BR BKN007 10/10 Q1004 TEMPO 6000
Loading
Personal Weather Stations






























Interactive Weather Map New forecast layout! Learn more

10-Day Weather Forecast

Advertisements
Track Severe Weather on mobile